sensor_id;sensor_type;location;lat;lon;timestamp;P1;durP1;ratioP1;P2;durP2;ratioP2
15474;SDS011;7839;50.462;9.678;2023-01-06T00:02:51;5.43;;;1.90;;
15474;SDS011;7839;50.462;9.678;2023-01-06T00:09:31;3.10;;;1.60;;
15474;SDS011;7839;50.462;9.678;2023-01-06T00:16:15;4.07;;;1.70;;
15474;SDS011;7839;50.462;9.678;2023-01-06T00:22:55;2.87;;;1.30;;
15474;SDS011;7839;50.462;9.678;2023-01-06T00:29:36;3.47;;;1.60;;
15474;SDS011;7839;50.462;9.678;2023-01-06T00:36:17;3.30;;;1.40;;
15474;SDS011;7839;50.462;9.678;2023-01-06T00:42:57;1.97;;;1.43;;
15474;SDS011;7839;50.462;9.678;2023-01-06T00:49:37;2.43;;;1.23;;
15474;SDS011;7839;50.462;9.678;2023-01-06T00:56:18;1.63;;;1.27;;
15474;SDS011;7839;50.462;9.678;2023-01-06T01:02:58;3.50;;;1.70;;
15474;SDS011;7839;50.462;9.678;2023-01-06T01:09:40;4.83;;;1.47;;
15474;SDS011;7839;50.462;9.678;2023-01-06T01:16:20;1.87;;;1.30;;
15474;SDS011;7839;50.462;9.678;2023-01-06T01:23:00;1.93;;;1.63;;
15474;SDS011;7839;50.462;9.678;2023-01-06T01:29:40;2.00;;;1.20;;
15474;SDS011;7839;50.462;9.678;2023-01-06T01:36:21;2.40;;;1.47;;
15474;SDS011;7839;50.462;9.678;2023-01-06T01:43:01;2.37;;;1.30;;
15474;SDS011;7839;50.462;9.678;2023-01-06T01:49:42;1.23;;;1.13;;
15474;SDS011;7839;50.462;9.678;2023-01-06T01:56:24;1.80;;;1.20;;
15474;SDS011;7839;50.462;9.678;2023-01-06T02:03:06;2.23;;;1.33;;
15474;SDS011;7839;50.462;9.678;2023-01-06T02:16:47;2.07;;;1.37;;
15474;SDS011;7839;50.462;9.678;2023-01-06T02:30:47;1.30;;;1.20;;
15474;SDS011;7839;50.462;9.678;2023-01-06T02:50:53;1.30;;;1.20;;
15474;SDS011;7839;50.462;9.678;2023-01-06T02:57:36;0.90;;;0.90;;
15474;SDS011;7839;50.462;9.678;2023-01-06T03:04:20;1.33;;;1.23;;
15474;SDS011;7839;50.462;9.678;2023-01-06T03:11:01;1.93;;;1.07;;
15474;SDS011;7839;50.462;9.678;2023-01-06T03:17:42;1.23;;;0.97;;
15474;SDS011;7839;50.462;9.678;2023-01-06T03:24:22;1.60;;;0.90;;
15474;SDS011;7839;50.462;9.678;2023-01-06T03:31:16;1.07;;;1.00;;
15474;SDS011;7839;50.462;9.678;2023-01-06T03:38:14;1.30;;;1.20;;
15474;SDS011;7839;50.462;9.678;2023-01-06T03:45:01;1.00;;;0.90;;
15474;SDS011;7839;50.462;9.678;2023-01-06T03:51:53;1.30;;;0.90;;
15474;SDS011;7839;50.462;9.678;2023-01-06T03:58:34;0.87;;;0.87;;
15474;SDS011;7839;50.462;9.678;2023-01-06T04:05:17;0.80;;;0.80;;
15474;SDS011;7839;50.462;9.678;2023-01-06T04:11:58;0.90;;;0.90;;
15474;SDS011;7839;50.462;9.678;2023-01-06T04:18:57;1.87;;;0.70;;
15474;SDS011;7839;50.462;9.678;2023-01-06T04:25:37;0.60;;;0.60;;
15474;SDS011;7839;50.462;9.678;2023-01-06T04:32:17;0.90;;;0.70;;
15474;SDS011;7839;50.462;9.678;2023-01-06T04:38:58;0.57;;;0.57;;
15474;SDS011;7839;50.462;9.678;2023-01-06T04:45:41;0.50;;;0.50;;
15474;SDS011;7839;50.462;9.678;2023-01-06T04:52:22;0.93;;;0.60;;
15474;SDS011;7839;50.462;9.678;2023-01-06T04:59:02;0.47;;;0.47;;
15474;SDS011;7839;50.462;9.678;2023-01-06T05:05:42;0.60;;;0.60;;
15474;SDS011;7839;50.462;9.678;2023-01-06T05:12:22;0.60;;;0.60;;
15474;SDS011;7839;50.462;9.678;2023-01-06T05:19:05;0.43;;;0.30;;
15474;SDS011;7839;50.462;9.678;2023-01-06T05:25:45;0.60;;;0.60;;
15474;SDS011;7839;50.462;9.678;2023-01-06T05:32:25;0.33;;;0.33;;
15474;SDS011;7839;50.462;9.678;2023-01-06T05:39:05;0.50;;;0.30;;
15474;SDS011;7839;50.462;9.678;2023-01-06T05:45:46;0.30;;;0.30;;
15474;SDS011;7839;50.462;9.678;2023-01-06T05:52:26;1.23;;;0.40;;
15474;SDS011;7839;50.462;9.678;2023-01-06T05:59:06;1.37;;;0.60;;
15474;SDS011;7839;50.462;9.678;2023-01-06T06:05:48;0.43;;;0.43;;
15474;SDS011;7839;50.462;9.678;2023-01-06T06:12:31;0.33;;;0.33;;
15474;SDS011;7839;50.462;9.678;2023-01-06T06:19:12;0.20;;;0.20;;
15474;SDS011;7839;50.462;9.678;2023-01-06T06:25:52;0.73;;;0.50;;
15474;SDS011;7839;50.462;9.678;2023-01-06T06:32:33;0.40;;;0.40;;
15474;SDS011;7839;50.462;9.678;2023-01-06T06:39:14;0.30;;;0.30;;
15474;SDS011;7839;50.462;9.678;2023-01-06T06:45:54;0.40;;;0.40;;
15474;SDS011;7839;50.462;9.678;2023-01-06T06:52:35;0.30;;;0.30;;
15474;SDS011;7839;50.462;9.678;2023-01-06T06:59:15;0.40;;;0.40;;
15474;SDS011;7839;50.462;9.678;2023-01-06T07:05:55;0.50;;;0.30;;
15474;SDS011;7839;50.462;9.678;2023-01-06T07:12:36;0.40;;;0.40;;
15474;SDS011;7839;50.462;9.678;2023-01-06T07:19:17;0.33;;;0.33;;
15474;SDS011;7839;50.462;9.678;2023-01-06T07:25:58;1.07;;;0.37;;
15474;SDS011;7839;50.462;9.678;2023-01-06T07:32:38;0.33;;;0.33;;
15474;SDS011;7839;50.462;9.678;2023-01-06T07:39:19;0.50;;;0.50;;
15474;SDS011;7839;50.462;9.678;2023-01-06T07:46:00;0.40;;;0.40;;
15474;SDS011;7839;50.462;9.678;2023-01-06T07:52:41;0.37;;;0.37;;
15474;SDS011;7839;50.462;9.678;2023-01-06T07:59:21;0.40;;;0.40;;
15474;SDS011;7839;50.462;9.678;2023-01-06T08:06:08;0.30;;;0.30;;
15474;SDS011;7839;50.462;9.678;2023-01-06T08:12:48;0.50;;;0.50;;
15474;SDS011;7839;50.462;9.678;2023-01-06T08:19:28;1.87;;;0.53;;
15474;SDS011;7839;50.462;9.678;2023-01-06T08:26:13;0.70;;;0.53;;
15474;SDS011;7839;50.462;9.678;2023-01-06T08:32:57;0.40;;;0.40;;
15474;SDS011;7839;50.462;9.678;2023-01-06T08:39:37;0.40;;;0.40;;
15474;SDS011;7839;50.462;9.678;2023-01-06T08:46:18;0.40;;;0.40;;
15474;SDS011;7839;50.462;9.678;2023-01-06T08:52:58;0.97;;;0.40;;
15474;SDS011;7839;50.462;9.678;2023-01-06T08:59:39;0.57;;;0.27;;
15474;SDS011;7839;50.462;9.678;2023-01-06T09:06:19;1.77;;;0.80;;
15474;SDS011;7839;50.462;9.678;2023-01-06T09:13:00;1.07;;;0.60;;
15474;SDS011;7839;50.462;9.678;2023-01-06T09:19:40;0.90;;;0.53;;
15474;SDS011;7839;50.462;9.678;2023-01-06T09:26:20;0.40;;;0.40;;
15474;SDS011;7839;50.462;9.678;2023-01-06T09:33:01;0.93;;;0.60;;
15474;SDS011;7839;50.462;9.678;2023-01-06T09:39:42;0.93;;;0.60;;
15474;SDS011;7839;50.462;9.678;2023-01-06T09:46:23;0.70;;;0.70;;
15474;SDS011;7839;50.462;9.678;2023-01-06T09:53:05;1.43;;;0.50;;
15474;SDS011;7839;50.462;9.678;2023-01-06T09:59:51;0.50;;;0.50;;
15474;SDS011;7839;50.462;9.678;2023-01-06T10:06:40;2.20;;;0.63;;
15474;SDS011;7839;50.462;9.678;2023-01-06T10:20:44;0.43;;;0.43;;
15474;SDS011;7839;50.462;9.678;2023-01-06T10:27:27;0.83;;;0.53;;
15474;SDS011;7839;50.462;9.678;2023-01-06T10:41:05;1.43;;;0.50;;
15474;SDS011;7839;50.462;9.678;2023-01-06T10:47:49;0.57;;;0.50;;
15474;SDS011;7839;50.462;9.678;2023-01-06T10:54:31;0.30;;;0.30;;
15474;SDS011;7839;50.462;9.678;2023-01-06T11:01:20;0.37;;;0.37;;
15474;SDS011;7839;50.462;9.678;2023-01-06T11:08:06;0.93;;;0.40;;
15474;SDS011;7839;50.462;9.678;2023-01-06T11:15:05;0.50;;;0.50;;
15474;SDS011;7839;50.462;9.678;2023-01-06T11:21:46;0.50;;;0.40;;
15474;SDS011;7839;50.462;9.678;2023-01-06T11:28:27;0.50;;;0.40;;
15474;SDS011;7839;50.462;9.678;2023-01-06T11:35:07;0.50;;;0.50;;
15474;SDS011;7839;50.462;9.678;2023-01-06T11:42:01;0.40;;;0.40;;
15474;SDS011;7839;50.462;9.678;2023-01-06T11:48:48;1.00;;;0.40;;
15474;SDS011;7839;50.462;9.678;2023-01-06T11:55:32;0.63;;;0.60;;
15474;SDS011;7839;50.462;9.678;2023-01-06T12:02:14;1.40;;;0.70;;
15474;SDS011;7839;50.462;9.678;2023-01-06T12:09:04;0.60;;;0.60;;
15474;SDS011;7839;50.462;9.678;2023-01-06T12:15:51;0.40;;;0.40;;
15474;SDS011;7839;50.462;9.678;2023-01-06T12:29:19;0.60;;;0.60;;
15474;SDS011;7839;50.462;9.678;2023-01-06T12:36:06;2.87;;;0.60;;
15474;SDS011;7839;50.462;9.678;2023-01-06T12:43:00;1.27;;;0.60;;
15474;SDS011;7839;50.462;9.678;2023-01-06T12:49:44;0.80;;;0.73;;
15474;SDS011;7839;50.462;9.678;2023-01-06T13:17:00;0.67;;;0.67;;
15474;SDS011;7839;50.462;9.678;2023-01-06T13:44:53;0.60;;;0.60;;
15474;SDS011;7839;50.462;9.678;2023-01-06T13:51:34;0.60;;;0.60;;
15474;SDS011;7839;50.462;9.678;2023-01-06T14:12:13;1.73;;;0.80;;
15474;SDS011;7839;50.462;9.678;2023-01-06T14:19:06;0.77;;;0.60;;
15474;SDS011;7839;50.462;9.678;2023-01-06T14:25:51;1.40;;;1.30;;
15474;SDS011;7839;50.462;9.678;2023-01-06T14:39:20;3.00;;;2.30;;
15474;SDS011;7839;50.462;9.678;2023-01-06T14:46:03;5.00;;;4.50;;
15474;SDS011;7839;50.462;9.678;2023-01-06T14:52:49;3.30;;;3.00;;
15474;SDS011;7839;50.462;9.678;2023-01-06T14:59:32;3.13;;;2.83;;
15474;SDS011;7839;50.462;9.678;2023-01-06T15:06:21;2.67;;;2.47;;
15474;SDS011;7839;50.462;9.678;2023-01-06T15:13:01;2.87;;;2.67;;
15474;SDS011;7839;50.462;9.678;2023-01-06T15:19:42;2.63;;;2.40;;
15474;SDS011;7839;50.462;9.678;2023-01-06T15:26:24;2.50;;;2.30;;
15474;SDS011;7839;50.462;9.678;2023-01-06T15:33:05;2.43;;;2.23;;
15474;SDS011;7839;50.462;9.678;2023-01-06T15:39:48;2.57;;;2.23;;
15474;SDS011;7839;50.462;9.678;2023-01-06T15:46:38;2.23;;;2.03;;
15474;SDS011;7839;50.462;9.678;2023-01-06T15:53:20;2.13;;;2.00;;
15474;SDS011;7839;50.462;9.678;2023-01-06T16:00:05;2.80;;;1.87;;
15474;SDS011;7839;50.462;9.678;2023-01-06T16:06:46;2.80;;;2.30;;
15474;SDS011;7839;50.462;9.678;2023-01-06T16:13:27;1.70;;;1.60;;
15474;SDS011;7839;50.462;9.678;2023-01-06T16:20:20;2.30;;;2.10;;
15474;SDS011;7839;50.462;9.678;2023-01-06T16:27:01;2.10;;;1.90;;
15474;SDS011;7839;50.462;9.678;2023-01-06T16:33:43;1.93;;;1.53;;
15474;SDS011;7839;50.462;9.678;2023-01-06T16:40:25;1.80;;;1.70;;
15474;SDS011;7839;50.462;9.678;2023-01-06T16:47:07;2.10;;;1.70;;
15474;SDS011;7839;50.462;9.678;2023-01-06T16:53:48;1.80;;;1.70;;
15474;SDS011;7839;50.462;9.678;2023-01-06T17:00:29;2.10;;;1.70;;
15474;SDS011;7839;50.462;9.678;2023-01-06T17:07:11;1.70;;;1.60;;
15474;SDS011;7839;50.462;9.678;2023-01-06T17:13:54;1.87;;;1.50;;
15474;SDS011;7839;50.462;9.678;2023-01-06T17:20:35;2.37;;;1.83;;
15474;SDS011;7839;50.462;9.678;2023-01-06T17:27:25;1.90;;;1.70;;
15474;SDS011;7839;50.462;9.678;2023-01-06T17:34:11;1.83;;;1.30;;
15474;SDS011;7839;50.462;9.678;2023-01-06T17:40:53;2.10;;;1.90;;
15474;SDS011;7839;50.462;9.678;2023-01-06T17:47:37;1.60;;;1.50;;
15474;SDS011;7839;50.462;9.678;2023-01-06T17:54:21;1.73;;;1.63;;
15474;SDS011;7839;50.462;9.678;2023-01-06T18:01:21;1.93;;;1.70;;
15474;SDS011;7839;50.462;9.678;2023-01-06T18:08:09;2.23;;;2.03;;
15474;SDS011;7839;50.462;9.678;2023-01-06T18:14:49;1.43;;;1.33;;
15474;SDS011;7839;50.462;9.678;2023-01-06T18:21:34;2.03;;;1.40;;
15474;SDS011;7839;50.462;9.678;2023-01-06T18:28:16;2.13;;;1.37;;
15474;SDS011;7839;50.462;9.678;2023-01-06T18:35:16;1.17;;;1.13;;
15474;SDS011;7839;50.462;9.678;2023-01-06T18:42:31;2.30;;;1.20;;
15474;SDS011;7839;50.462;9.678;2023-01-06T18:49:08;1.63;;;1.00;;
15474;SDS011;7839;50.462;9.678;2023-01-06T18:55:50;0.90;;;0.90;;
15474;SDS011;7839;50.462;9.678;2023-01-06T19:02:32;1.27;;;0.90;;
15474;SDS011;7839;50.462;9.678;2023-01-06T19:15:58;1.27;;;1.17;;
15474;SDS011;7839;50.462;9.678;2023-01-06T19:22:40;1.70;;;1.10;;
15474;SDS011;7839;50.462;9.678;2023-01-06T19:29:23;1.07;;;1.03;;
15474;SDS011;7839;50.462;9.678;2023-01-06T19:42:45;1.00;;;1.00;;
15474;SDS011;7839;50.462;9.678;2023-01-06T19:49:33;1.93;;;1.20;;
15474;SDS011;7839;50.462;9.678;2023-01-06T19:56:24;1.27;;;1.17;;
15474;SDS011;7839;50.462;9.678;2023-01-06T20:03:08;1.17;;;1.07;;
15474;SDS011;7839;50.462;9.678;2023-01-06T20:09:55;0.90;;;0.90;;
15474;SDS011;7839;50.462;9.678;2023-01-06T20:16:36;0.90;;;0.90;;
15474;SDS011;7839;50.462;9.678;2023-01-06T20:23:16;1.03;;;0.93;;
15474;SDS011;7839;50.462;9.678;2023-01-06T20:29:57;1.53;;;1.00;;
15474;SDS011;7839;50.462;9.678;2023-01-06T20:36:37;0.90;;;0.90;;
15474;SDS011;7839;50.462;9.678;2023-01-06T20:43:17;0.80;;;0.80;;
15474;SDS011;7839;50.462;9.678;2023-01-06T20:49:58;1.23;;;1.10;;
15474;SDS011;7839;50.462;9.678;2023-01-06T20:56:38;0.97;;;0.97;;
15474;SDS011;7839;50.462;9.678;2023-01-06T21:03:18;1.20;;;1.10;;
15474;SDS011;7839;50.462;9.678;2023-01-06T21:09:59;1.33;;;1.23;;
15474;SDS011;7839;50.462;9.678;2023-01-06T21:16:39;1.00;;;1.00;;
15474;SDS011;7839;50.462;9.678;2023-01-06T21:23:19;1.17;;;1.03;;
15474;SDS011;7839;50.462;9.678;2023-01-06T21:30:01;2.80;;;1.30;;
15474;SDS011;7839;50.462;9.678;2023-01-06T21:36:44;1.37;;;1.20;;
15474;SDS011;7839;50.462;9.678;2023-01-06T21:43:24;1.67;;;1.30;;
15474;SDS011;7839;50.462;9.678;2023-01-06T21:50:04;1.20;;;1.10;;
15474;SDS011;7839;50.462;9.678;2023-01-06T21:56:46;1.90;;;1.10;;
15474;SDS011;7839;50.462;9.678;2023-01-06T22:03:26;0.97;;;0.97;;
15474;SDS011;7839;50.462;9.678;2023-01-06T22:10:06;1.40;;;1.10;;
15474;SDS011;7839;50.462;9.678;2023-01-06T22:16:47;1.00;;;0.93;;
15474;SDS011;7839;50.462;9.678;2023-01-06T22:23:27;0.73;;;0.73;;
15474;SDS011;7839;50.462;9.678;2023-01-06T22:30:09;0.90;;;0.90;;
15474;SDS011;7839;50.462;9.678;2023-01-06T22:36:50;1.00;;;0.83;;
15474;SDS011;7839;50.462;9.678;2023-01-06T22:43:30;1.70;;;1.00;;
15474;SDS011;7839;50.462;9.678;2023-01-06T22:50:11;1.30;;;1.20;;
15474;SDS011;7839;50.462;9.678;2023-01-06T22:56:52;0.90;;;0.90;;
15474;SDS011;7839;50.462;9.678;2023-01-06T23:03:33;0.70;;;0.70;;
15474;SDS011;7839;50.462;9.678;2023-01-06T23:10:14;0.80;;;0.80;;
15474;SDS011;7839;50.462;9.678;2023-01-06T23:16:54;0.80;;;0.80;;
15474;SDS011;7839;50.462;9.678;2023-01-06T23:23:35;0.90;;;0.90;;
15474;SDS011;7839;50.462;9.678;2023-01-06T23:30:16;0.87;;;0.87;;
15474;SDS011;7839;50.462;9.678;2023-01-06T23:36:56;0.80;;;0.80;;
15474;SDS011;7839;50.462;9.678;2023-01-06T23:43:36;0.83;;;0.83;;
15474;SDS011;7839;50.462;9.678;2023-01-06T23:50:17;0.90;;;0.90;;
15474;SDS011;7839;50.462;9.678;2023-01-06T23:56:58;0.80;;;0.80;;
